Time;durP1;ratioP1;P1;durP2;ratioP2;P2;SDS_P1;SDS_P2;PMS_P1;PMS_P2;Temp;Humidity;BMP_temperature;BMP_pressure;BME280_temperature;BME280_humidity;BME280_pressure;Samples;Min_cycle;Max_cycle;Signal;HPM_P1;HPM_P2
2022/06/15 00:01:58;;;;;;;;;;;;;;;17.94;57.76;102087.97;5042737;28;20007;-76
2022/06/15 00:13:35;;;;;;;;;;;;;;;17.94;56.76;102094.25;5039954;28;19925;-75
2022/06/15 00:16:02;;;;;;;;;;;;;;;17.88;57.08;102093.50;5045354;28;19986;-75
2022/06/15 00:18:29;;;;;;;;;;;;;;;17.88;56.71;102089.03;5049165;28;19932;-75
2022/06/15 00:20:56;;;;;;;;;;;;;;;17.85;57.54;102090.94;5046376;28;19917;-75
2022/06/15 00:35:38;;;;;;;;;;;;;;;17.64;57.64;102087.97;5046041;28;20533;-75
2022/06/15 00:38:04;;;;;;;;;;;;;;;17.61;57.69;102086.25;5042791;28;20015;-75
2022/06/15 00:40:30;;;;;;;;;;;;;;;17.59;57.46;102080.06;5048217;28;19923;-76
2022/06/15 00:42:56;;;;;;;;;;;;;;;17.56;57.68;102080.16;5044100;28;19925;-75
2022/06/15 00:45:23;;;;;;;;;;;;;;;17.54;57.41;102073.94;5035092;28;19923;-76
2022/06/15 00:47:49;;;;;;;;;;;;;;;17.52;57.62;102074.94;5045732;28;19928;-75
2022/06/15 00:50:18;;;;;;;;;;;;;;;17.49;58.41;102080.38;5046645;28;19963;-75
2022/06/15 00:52:47;;;;;;;;;;;;;;;17.48;57.86;102084.00;5039445;28;19921;-75
2022/06/15 00:55:16;;;;;;;;;;;;;;;17.46;57.80;102078.69;5047067;28;19928;-75
2022/06/15 00:57:42;;;;;;;;;;;;;;;17.44;57.64;102084.06;5047784;28;19920;-75
2022/06/15 01:00:11;;;;;;;;;;;;;;;17.44;57.28;102076.03;5045730;28;19924;-75
2022/06/15 01:02:39;;;;;;;;;;;;;;;17.40;57.86;102069.00;5045923;28;20151;-75
2022/06/15 01:05:07;;;;;;;;;;;;;;;17.36;57.43;102067.34;5048097;28;19917;-75
2022/06/15 01:07:48;;;;;;;;;;;;;;;17.34;58.19;102068.31;5042668;28;19940;-75
2022/06/15 01:10:21;;;;;;;;;;;;;;;17.32;58.02;102056.75;5047520;28;19946;-75
2022/06/15 01:13:08;;;;;;;;;;;;;;;17.29;58.21;102065.75;5042477;28;19960;-75
2022/06/15 01:15:55;;;;;;;;;;;;;;;17.28;58.41;102062.22;5045944;28;20293;-75
2022/06/15 01:18:41;;;;;;;;;;;;;;;17.28;57.95;102061.31;5038544;28;19947;-75
2022/06/15 01:21:12;;;;;;;;;;;;;;;17.25;57.69;102061.44;5042429;28;19916;-75
2022/06/15 01:26:29;;;;;;;;;;;;;;;17.20;58.28;102060.69;5067294;27;19917;-75
2022/06/15 01:29:01;;;;;;;;;;;;;;;17.16;58.86;102067.91;5066816;28;19960;-75
2022/06/15 01:31:33;;;;;;;;;;;;;;;17.14;58.65;102062.59;5067858;28;19940;-75
2022/06/15 01:36:49;;;;;;;;;;;;;;;17.07;58.65;102061.03;5050185;28;20386;-75
2022/06/15 01:39:18;;;;;;;;;;;;;;;17.05;58.03;102060.19;5041075;28;20288;-75
2022/06/15 01:41:48;;;;;;;;;;;;;;;17.01;58.06;102058.53;5045327;28;19917;-75
2022/06/15 01:46:53;;;;;;;;;;;;;;;16.92;59.44;102054.28;5042758;28;20342;-75
2022/06/15 01:49:22;;;;;;;;;;;;;;;16.89;59.20;102054.31;5043663;28;20406;-75
2022/06/15 01:51:50;;;;;;;;;;;;;;;16.89;59.56;102054.31;5042216;28;19917;-75
2022/06/15 01:54:20;;;;;;;;;;;;;;;16.89;59.37;102053.47;5027838;28;19925;-75
2022/06/15 01:56:48;;;;;;;;;;;;;;;16.86;59.34;102051.75;5028663;28;19923;-75
2022/06/15 02:02:28;;;;;;;;;;;;;;;16.82;59.34;102042.94;5084312;27;19921;-77
2022/06/15 02:05:06;;;;;;;;;;;;;;;16.81;59.10;102038.47;5064178;28;20557;-77
2022/06/15 02:07:42;;;;;;;;;;;;;;;16.79;59.38;102042.13;5064680;28;20003;-78
2022/06/15 02:10:15;;;;;;;;;;;;;;;16.77;59.72;102039.50;5064193;28;19924;-77
2022/06/15 02:13:01;;;;;;;;;;;;;;;16.74;59.58;102034.22;5059077;28;19923;-77
2022/06/15 02:15:28;;;;;;;;;;;;;;;16.72;59.57;102033.38;5060012;28;19917;-77
2022/06/15 02:17:57;;;;;;;;;;;;;;;16.71;59.65;102034.31;5067303;28;19962;-77
2022/06/15 02:20:27;;;;;;;;;;;;;;;16.68;59.85;102023.66;5061524;28;19928;-77
2022/06/15 02:22:55;;;;;;;;;;;;;;;16.65;59.58;102029.97;5058360;28;20411;-77
2022/06/15 02:25:24;;;;;;;;;;;;;;;16.65;59.75;102029.13;5067510;28;19952;-77
2022/06/15 02:27:50;;;;;;;;;;;;;;;16.64;59.84;102033.56;5055958;28;19917;-77
2022/06/15 02:30:20;;;;;;;;;;;;;;;16.64;59.66;102030.03;5059225;28;19917;-77
2022/06/15 02:32:47;;;;;;;;;;;;;;;16.63;59.81;102023.78;5066435;28;19928;-77
2022/06/15 02:35:14;;;;;;;;;;;;;;;16.66;60.24;102028.22;5067413;28;20365;-77
2022/06/15 02:37:40;;;;;;;;;;;;;;;16.66;59.64;102025.53;5065821;28;19920;-77
2022/06/15 02:40:07;;;;;;;;;;;;;;;16.66;60.01;102025.53;5066462;28;19921;-77
2022/06/15 02:42:34;;;;;;;;;;;;;;;16.71;59.83;102018.25;5062193;28;19986;-77
2022/06/15 02:45:03;;;;;;;;;;;;;;;16.72;59.58;102025.34;5066649;28;19920;-77
2022/06/15 02:47:31;;;;;;;;;;;;;;;16.72;59.96;102025.34;5061597;28;19924;-77
2022/06/15 02:49:58;;;;;;;;;;;;;;;16.72;59.23;102028.00;5059673;28;19928;-77
2022/06/15 02:52:26;;;;;;;;;;;;;;;16.71;59.32;102023.59;5058159;28;19916;-77
2022/06/15 02:54:53;;;;;;;;;;;;;;;16.70;59.20;102029.88;5066107;28;19917;-77
2022/06/15 02:57:20;;;;;;;;;;;;;;;16.69;59.12;102017.41;5065294;28;20377;-77
2022/06/15 02:59:47;;;;;;;;;;;;;;;16.67;59.38;102016.56;5065134;28;19917;-77
2022/06/15 03:02:14;;;;;;;;;;;;;;;16.65;59.40;102013.94;5085561;28;19995;-77
2022/06/15 03:04:41;;;;;;;;;;;;;;;16.63;59.89;102009.53;5081212;28;20354;-77
2022/06/15 03:07:07;;;;;;;;;;;;;;;16.61;59.49;102016.72;5078892;28;20061;-77
2022/06/15 03:09:33;;;;;;;;;;;;;;;16.59;59.59;102021.25;5084391;28;19917;-77
2022/06/15 03:11:59;;;;;;;;;;;;;;;16.51;59.82;102018.78;5080054;28;19917;-77
2022/06/15 03:14:25;;;;;;;;;;;;;;;16.47;59.98;102020.66;5068625;28;19931;-77
2022/06/15 03:16:51;;;;;;;;;;;;;;;16.45;60.20;102016.28;5071263;28;20380;-77
2022/06/15 03:19:17;;;;;;;;;;;;;;;16.50;59.50;102009.88;5069867;28;19928;-77
2022/06/15 03:21:43;;;;;;;;;;;;;;;16.45;59.85;102010.91;5071208;28;19920;-77
2022/06/15 03:24:09;;;;;;;;;;;;;;;16.44;60.37;102015.38;5069323;28;20303;-77
2022/06/15 03:26:35;;;;;;;;;;;;;;;16.44;59.94;102015.38;5067440;28;19974;-77
2022/06/15 03:29:02;;;;;;;;;;;;;;;16.43;59.80;102016.28;5070766;28;19962;-77
2022/06/15 03:31:29;;;;;;;;;;;;;;;16.41;59.71;102020.81;5071279;28;19932;-77
2022/06/15 03:33:55;;;;;;;;;;;;;;;16.39;60.47;102016.44;5067708;28;20314;-77
2022/06/15 03:36:21;;;;;;;;;;;;;;;16.38;60.28;102020.88;5067306;28;19920;-77
2022/06/15 03:38:47;;;;;;;;;;;;;;;16.38;59.96;102015.53;5068739;28;20422;-77
2022/06/15 03:41:13;;;;;;;;;;;;;;;16.45;60.30;102016.28;5070300;28;19927;-77
2022/06/15 03:43:39;;;;;;;;;;;;;;;16.44;59.97;102020.72;5068103;28;19923;-77
2022/06/15 03:46:05;;;;;;;;;;;;;;;16.44;59.82;102023.41;5068799;28;20292;-77
2022/06/15 03:48:31;;;;;;;;;;;;;;;16.43;59.93;102028.78;5068804;28;19927;-77
2022/06/15 03:50:57;;;;;;;;;;;;;;;16.43;59.26;102020.78;5068328;28;20392;-77
2022/06/15 03:53:23;;;;;;;;;;;;;;;16.42;60.27;102038.59;5072081;28;19984;-77
2022/06/15 03:55:49;;;;;;;;;;;;;;;16.42;59.70;102038.59;5069144;28;20224;-77
2022/06/15 03:58:17;;;;;;;;;;;;;;;16.42;60.37;102032.38;5073028;28;19916;-77
2022/06/15 04:00:43;;;;;;;;;;;;;;;16.41;60.32;102042.22;5069867;28;19924;-77
2022/06/15 04:03:09;;;;;;;;;;;;;;;16.43;59.44;102029.66;5070589;28;19962;-77
2022/06/15 04:05:38;;;;;;;;;;;;;;;16.43;60.12;102035.00;5072661;28;19923;-78
2022/06/15 04:08:37;;;;;;;;;;;;;;;16.43;60.12;102024.31;5065740;28;19940;-77
2022/06/15 04:10:50;;;;;;;;;;;;;;;16.44;60.01;102028.75;5066264;28;19921;-77
2022/06/15 04:13:20;;;;;;;;;;;;;;;16.45;60.40;102021.63;5069260;28;19924;-77
2022/06/15 04:15:47;;;;;;;;;;;;;;;16.46;60.40;102018.91;5063732;28;19920;-77
2022/06/15 04:18:13;;;;;;;;;;;;;;;16.48;60.25;102022.38;5064366;28;19917;-77
2022/06/15 04:20:40;;;;;;;;;;;;;;;16.48;60.21;102027.75;5062650;28;19921;-77
2022/06/15 04:23:08;;;;;;;;;;;;;;;16.48;59.96;102022.38;5069003;28;19962;-77
2022/06/15 04:25:38;;;;;;;;;;;;;;;16.46;60.00;102028.69;5069947;28;20343;-77
2022/06/15 04:28:05;;;;;;;;;;;;;;;16.44;60.48;102028.75;5065349;28;19948;-77
2022/06/15 04:30:31;;;;;;;;;;;;;;;16.46;60.24;102029.59;5070901;28;19920;-77
2022/06/15 04:32:57;;;;;;;;;;;;;;;16.49;60.37;102024.16;5067128;28;19920;-77
2022/06/15 04:35:23;;;;;;;;;;;;;;;16.52;60.31;102027.69;5061183;28;20442;-77
2022/06/15 04:37:49;;;;;;;;;;;;;;;16.56;59.64;102034.69;5065263;28;19970;-77
2022/06/15 04:40:15;;;;;;;;;;;;;;;16.58;59.35;102038.22;5072063;28;19928;-77
2022/06/15 04:42:42;;;;;;;;;;;;;;;16.57;59.91;102036.47;5066349;28;19970;-77
2022/06/15 04:45:08;;;;;;;;;;;;;;;16.59;59.85;102030.16;5065364;28;19954;-77
2022/06/15 04:47:34;;;;;;;;;;;;;;;16.60;59.63;102028.38;5069666;28;20356;-77
2022/06/15 04:50:00;;;;;;;;;;;;;;;16.61;59.52;102027.41;5068747;28;19932;-77
2022/06/15 04:52:26;;;;;;;;;;;;;;;16.64;60.10;102032.72;5068418;28;19928;-77
2022/06/15 04:54:52;;;;;;;;;;;;;;;16.67;59.83;102035.28;5070661;28;19916;-77
2022/06/15 04:57:18;;;;;;;;;;;;;;;16.72;59.87;102037.84;5069330;28;19917;-77
2022/06/15 04:59:44;;;;;;;;;;;;;;;16.76;59.96;102031.50;5070229;28;20382;-77
2022/06/15 05:02:10;;;;;;;;;;;;;;;16.79;59.73;102032.28;5061212;28;19994;-77
2022/06/15 05:04:36;;;;;;;;;;;;;;;16.83;59.47;102035.75;5068828;28;19927;-77
2022/06/15 05:07:03;;;;;;;;;;;;;;;16.87;59.90;102036.56;5065043;28;20420;-77
2022/06/15 05:09:29;;;;;;;;;;;;;;;16.90;59.10;102031.13;5061505;28;20445;-77
2022/06/15 05:11:55;;;;;;;;;;;;;;;16.89;59.42;102027.56;5064431;28;19939;-77
2022/06/15 05:14:21;;;;;;;;;;;;;;;16.92;59.21;102034.66;5068565;28;19970;-77
2022/06/15 05:16:47;;;;;;;;;;;;;;;16.93;59.25;102031.06;5061085;28;20379;-77
2022/06/15 05:19:14;;;;;;;;;;;;;;;16.94;59.67;102030.16;5063133;28;20406;-77
2022/06/15 05:21:40;;;;;;;;;;;;;;;16.99;59.33;102022.88;5062071;28;20277;-77
2022/06/15 05:24:07;;;;;;;;;;;;;;;17.03;58.67;102021.84;5063016;28;19916;-77
2022/06/15 05:26:32;;;;;;;;;;;;;;;17.05;59.21;102027.19;5063502;28;19924;-77
2022/06/15 05:28:58;;;;;;;;;;;;;;;17.11;59.00;102025.19;5060642;28;20387;-77
2022/06/15 05:31:25;;;;;;;;;;;;;;;17.14;59.20;102026.91;5060057;28;19924;-77
2022/06/15 05:33:54;;;;;;;;;;;;;;;17.18;58.96;102023.22;5072012;28;19932;-77
2022/06/15 05:36:25;;;;;;;;;;;;;;;17.17;59.21;102026.84;5070938;28;21496;-77
2022/06/15 05:38:51;;;;;;;;;;;;;;;17.25;59.00;102029.28;5070852;28;19916;-77
2022/06/15 05:41:17;;;;;;;;;;;;;;;17.28;58.90;102029.19;5068933;28;19927;-77
2022/06/15 05:43:48;;;;;;;;;;;;;;;17.34;59.03;102031.69;5070618;28;20369;-77
2022/06/15 05:46:15;;;;;;;;;;;;;;;17.38;58.73;102019.94;5066570;28;19916;-77
2022/06/15 05:48:41;;;;;;;;;;;;;;;17.43;58.58;102034.09;5064202;28;19999;-79
2022/06/15 05:51:07;;;;;;;;;;;;;;;17.46;58.43;102034.00;5063424;28;19959;-77
2022/06/15 05:53:33;;;;;;;;;;;;;;;17.52;58.72;102040.09;5076295;28;20013;-77
2022/06/15 05:55:59;;;;;;;;;;;;;;;17.57;58.95;102040.81;5058392;28;20381;-77
2022/06/15 05:58:25;;;;;;;;;;;;;;;17.63;58.44;102037.97;5062611;28;19923;-78
2022/06/15 06:00:51;;;;;;;;;;;;;;;17.66;58.93;102037.88;5057529;28;19932;-77
2022/06/15 06:03:17;;;;;;;;;;;;;;;17.72;58.67;102035.00;5057777;28;20392;-78
2022/06/15 06:05:43;;;;;;;;;;;;;;;17.76;58.05;102036.66;5066788;28;19925;-77
2022/06/15 06:08:08;;;;;;;;;;;;;;;17.82;58.16;102040.97;5072303;28;19928;-77
2022/06/15 06:10:35;;;;;;;;;;;;;;;17.87;57.34;102032.75;5073750;28;20022;-77
2022/06/15 06:13:01;;;;;;;;;;;;;;;17.93;57.94;102043.28;5064884;28;19917;-77
2022/06/15 06:15:26;;;;;;;;;;;;;;;17.98;57.62;102044.09;5072869;28;19912;-77
2022/06/15 06:17:52;;;;;;;;;;;;;;;17.99;57.72;102040.44;5073055;28;19912;-77
2022/06/15 06:20:18;;;;;;;;;;;;;;;18.01;57.57;102038.59;5072360;28;20308;-77
2022/06/15 06:22:44;;;;;;;;;;;;;;;18.11;57.23;102042.72;5072047;28;19923;-77
2022/06/15 06:25:10;;;;;;;;;;;;;;;18.17;57.10;102047.03;5072677;28;19923;-77
2022/06/15 06:27:36;;;;;;;;;;;;;;;18.25;57.45;102041.41;5072821;28;19919;-78
2022/06/15 06:30:03;;;;;;;;;;;;;;;18.30;57.30;102043.94;5077421;28;19939;-79
2022/06/15 06:32:29;;;;;;;;;;;;;;;18.39;56.74;102043.63;5070843;28;19923;-79
2022/06/15 06:34:55;;;;;;;;;;;;;;;18.46;56.58;102042.50;5071749;28;20327;-79
2022/06/15 06:37:22;;;;;;;;;;;;;;;18.52;56.54;102036.91;5072628;28;19912;-79
2022/06/15 06:39:50;;;;;;;;;;;;;;;18.60;56.53;102036.66;5062156;28;19916;-79
2022/06/15 06:42:17;;;;;;;;;;;;;;;18.68;56.59;102041.75;5063278;28;19927;-79
2022/06/15 06:44:43;;;;;;;;;;;;;;;18.74;56.37;102039.72;5071181;28;20475;-78
2022/06/15 06:47:09;;;;;;;;;;;;;;;18.81;56.20;102039.53;5073183;28;19978;-79
2022/06/15 06:49:35;;;;;;;;;;;;;;;18.88;55.98;102049.13;5072943;28;20023;-78
2022/06/15 06:52:01;;;;;;;;;;;;;;;18.96;55.77;102046.19;5074909;28;19966;-79
2022/06/15 06:54:27;;;;;;;;;;;;;;;19.04;55.59;102047.66;5075594;28;19963;-79
2022/06/15 06:56:53;;;;;;;;;;;;;;;19.14;55.46;102045.50;5075569;28;19913;-78
2022/06/15 06:59:19;;;;;;;;;;;;;;;19.19;55.09;102048.91;5073636;28;19923;-77
2022/06/15 07:01:46;;;;;;;;;;;;;;;19.30;54.95;102048.50;5072557;28;19920;-77
2022/06/15 07:04:12;;;;;;;;;;;;;;;19.36;54.84;102056.31;5075542;28;19947;-79
2022/06/15 07:06:39;;;;;;;;;;;;;;;19.43;55.07;102062.34;5076340;28;19912;-79
2022/06/15 07:09:05;;;;;;;;;;;;;;;19.47;54.48;102057.72;5092351;28;19923;-78
2022/06/15 07:11:31;;;;;;;;;;;;;;;19.59;54.42;102062.66;5096850;28;20010;-80
2022/06/15 07:13:58;;;;;;;;;;;;;;;19.68;54.31;102062.28;5088137;28;19982;-78
2022/06/15 07:16:24;;;;;;;;;;;;;;;19.73;54.35;102062.97;5077868;28;19919;-79
2022/06/15 07:18:50;;;;;;;;;;;;;;;19.83;54.19;102062.66;5077704;28;19927;-78
2022/06/15 07:21:18;;;;;;;;;;;;;;;19.91;54.04;102060.50;5075968;28;20379;-78
2022/06/15 07:23:47;;;;;;;;;;;;;;;20.02;53.69;102065.47;5076636;28;19923;-78
2022/06/15 07:26:14;;;;;;;;;;;;;;;20.10;53.48;102052.59;5076384;28;19919;-78
2022/06/15 07:28:41;;;;;;;;;;;;;;;20.20;53.47;102063.84;5076434;28;19956;-78
2022/06/15 07:31:07;;;;;;;;;;;;;;;20.29;53.18;102066.16;5074894;28;19916;-79
2022/06/15 07:33:34;;;;;;;;;;;;;;;20.41;53.00;102062.09;5076863;28;19931;-78
2022/06/15 07:36:00;;;;;;;;;;;;;;;20.49;52.66;102065.31;5075633;28;20007;-78
2022/06/15 07:38:26;;;;;;;;;;;;;;;20.57;52.08;102062.28;5075323;28;19912;-78
2022/06/15 07:40:52;;;;;;;;;;;;;;;20.63;51.81;102064.72;5074097;28;19925;-77
2022/06/15 07:43:18;;;;;;;;;;;;;;;20.79;52.17;102069.50;5074040;28;19923;-76
2022/06/15 07:45:45;;;;;;;;;;;;;;;20.88;51.88;102065.50;5074121;28;19916;-77
2022/06/15 07:50:57;;;;;;;;;;;;;;;21.08;51.48;102070.00;5074729;28;19973;-78
2022/06/15 07:53:23;;;;;;;;;;;;;;;21.21;51.27;102057.75;5075000;28;19962;-78
2022/06/15 07:55:52;;;;;;;;;;;;;;;21.29;50.32;102058.25;5075392;28;20364;-78
2022/06/15 07:58:18;;;;;;;;;;;;;;;21.40;48.98;102062.28;5076027;28;19942;-78
2022/06/15 08:00:45;;;;;;;;;;;;;;;21.49;50.23;102051.06;5069480;28;19924;-76
2022/06/15 08:03:12;;;;;;;;;;;;;;;21.59;49.14;102055.09;5073773;28;19916;-81
2022/06/15 08:05:40;;;;;;;;;;;;;;;21.67;49.16;102052.06;5078308;28;19913;-81
2022/06/15 08:08:08;;;;;;;;;;;;;;;21.74;48.78;102052.63;5077289;28;19920;-82
2022/06/15 08:10:36;;;;;;;;;;;;;;;21.86;46.30;102057.44;5075355;28;20403;-82
2022/06/15 08:13:03;;;;;;;;;;;;;;;21.93;46.07;102055.31;5078294;28;19916;-83
2022/06/15 08:15:29;;;;;;;;;;;;;;;22.09;46.24;102055.44;5087692;28;19919;-83
2022/06/15 08:17:57;;;;;;;;;;;;;;;22.16;45.63;102056.88;5081443;28;19999;-79
2022/06/15 08:20:28;;;;;;;;;;;;;;;22.29;46.03;102059.81;5082500;28;19921;-81
2022/06/15 08:22:56;;;;;;;;;;;;;;;22.39;45.43;102057.56;5078157;28;20394;-83
2022/06/15 08:25:24;;;;;;;;;;;;;;;22.44;43.56;102060.91;5078671;28;19931;-79
2022/06/15 08:27:50;;;;;;;;;;;;;;;22.46;42.45;102056.31;5079166;28;19917;-78
2022/06/15 08:30:16;;;;;;;;;;;;;;;22.59;42.39;102054.75;5082575;28;19912;-81
2022/06/15 08:32:43;;;;;;;;;;;;;;;22.68;42.16;102057.91;5080231;28;19912;-82
2022/06/15 08:35:09;;;;;;;;;;;;;;;22.74;43.15;102053.06;5082102;28;20364;-81
2022/06/15 08:37:35;;;;;;;;;;;;;;;22.81;43.07;102050.03;5082038;28;19923;-80
2022/06/15 08:40:01;;;;;;;;;;;;;;;22.87;42.87;102047.88;5078867;28;20376;-80
2022/06/15 08:42:34;;;;;;;;;;;;;;;23.03;42.80;102057.84;5076688;28;19954;-80
2022/06/15 08:45:13;;;;;;;;;;;;;;;23.21;42.63;102048.78;5080524;28;19966;-85
2022/06/15 08:47:59;;;;;;;;;;;;;;;23.29;41.85;102047.50;5084571;28;19913;-79
2022/06/15 08:56:11;;;;;;;;;;;;;;;23.53;42.07;102043.44;5068695;27;19970;-75
2022/06/15 08:58:42;;;;;;;;;;;;;;;23.56;41.94;102042.41;5068294;28;20015;-75
2022/06/15 09:01:14;;;;;;;;;;;;;;;23.60;40.43;102041.25;5067837;28;19959;-75
2022/06/15 09:03:44;;;;;;;;;;;;;;;23.75;40.96;102039.50;5065707;28;19921;-75
2022/06/15 09:06:21;;;;;;;;;;;;;;;23.86;41.36;102041.63;5062930;28;20383;-76
2022/06/15 09:14:19;;;;;;;;;;;;;;;24.10;38.94;102038.47;5073582;27;20353;-76
2022/06/15 09:17:04;;;;;;;;;;;;;;;24.15;40.12;102034.56;5067679;28;19916;-76
2022/06/15 09:19:34;;;;;;;;;;;;;;;24.21;39.61;102042.31;5066778;28;19920;-76
2022/06/15 09:22:03;;;;;;;;;;;;;;;24.25;39.88;102037.59;5066752;28;19923;-76
2022/06/15 09:24:36;;;;;;;;;;;;;;;24.26;38.18;102033.03;5066648;28;19927;-76
2022/06/15 09:27:06;;;;;;;;;;;;;;;24.44;39.49;102025.66;5067315;28;20298;-76
2022/06/15 09:32:17;;;;;;;;;;;;;;;24.47;38.53;102025.47;5067348;28;19912;-76
2022/06/15 09:34:48;;;;;;;;;;;;;;;24.65;38.32;102023.50;5068494;28;19999;-76
2022/06/15 09:37:16;;;;;;;;;;;;;;;24.69;38.42;102025.94;5068396;28;20030;-76
2022/06/15 09:39:43;;;;;;;;;;;;;;;24.61;37.78;102021.91;5060472;28;20002;-75
2022/06/15 09:42:19;;;;;;;;;;;;;;;24.78;38.13;102015.50;5067046;28;19913;-76
2022/06/15 09:44:52;;;;;;;;;;;;;;;24.85;37.15;102019.59;5069116;28;20374;-79
2022/06/15 09:47:29;;;;;;;;;;;;;;;24.99;37.86;102021.44;5070917;28;19913;-77
2022/06/15 09:50:15;;;;;;;;;;;;;;;25.09;36.82;102017.16;5066841;28;19920;-77
2022/06/15 09:52:54;;;;;;;;;;;;;;;25.13;37.29;102018.72;5067452;28;20007;-76
2022/06/15 09:58:07;;;;;;;;;;;;;;;25.31;37.08;102026.63;5148981;27;20381;-76
2022/06/15 10:00:35;;;;;;;;;;;;;;;25.32;37.70;102031.09;5148575;27;19926;-77
2022/06/15 10:03:03;;;;;;;;;;;;;;;25.42;37.41;102032.31;5148758;27;19915;-77
2022/06/15 10:05:33;;;;;;;;;;;;;;;25.50;35.90;102026.38;5152672;27;19965;-79
2022/06/15 10:08:03;;;;;;;;;;;;;;;25.56;36.47;102022.38;5153138;27;19912;-80
2022/06/15 10:10:32;;;;;;;;;;;;;;;25.60;36.17;102021.22;5150437;27;20382;-78
2022/06/15 10:13:03;;;;;;;;;;;;;;;25.70;36.29;102022.38;5151076;27;19915;-81
2022/06/15 10:18:29;;;;;;;;;;;;;;;25.83;34.75;102028.72;5066179;28;20468;-77
2022/06/15 10:26:37;;;;;;;;;;;;;;;26.02;35.79;102022.06;5088815;27;19962;-77
2022/06/15 10:29:20;;;;;;;;;;;;;;;26.08;35.83;102021.69;5088723;28;19964;-76
2022/06/15 10:37:30;;;;;;;;;;;;;;;26.24;36.35;102020.66;5086298;27;19977;-75
2022/06/15 10:39:59;;;;;;;;;;;;;;;26.35;35.79;102017.19;5087894;28;19927;-76
2022/06/15 10:42:41;;;;;;;;;;;;;;;26.41;36.12;102017.63;5087906;28;19919;-76
2022/06/15 10:45:18;;;;;;;;;;;;;;;26.52;35.46;102024.16;5088743;28;19916;-76
2022/06/15 10:47:50;;;;;;;;;;;;;;;26.60;35.57;102021.81;5087104;28;19938;-76
2022/06/15 10:50:19;;;;;;;;;;;;;;;26.62;34.58;102020.72;5087491;28;20006;-76
2022/06/15 10:52:49;;;;;;;;;;;;;;;26.63;35.07;102011.59;5087568;28;20003;-76
2022/06/15 11:03:37;;;;;;;;;;;;;;;27.02;34.77;102011.63;5108640;28;19946;-77
2022/06/15 11:06:04;;;;;;;;;;;;;;;27.05;34.92;102011.38;5107111;28;20609;-77
2022/06/15 11:08:32;;;;;;;;;;;;;;;27.16;34.83;102007.03;5098016;28;20921;-77
2022/06/15 11:11:18;;;;;;;;;;;;;;;27.21;32.93;102004.84;5106800;28;19916;-77
2022/06/15 11:13:52;;;;;;;;;;;;;;;27.22;33.60;102002.03;5108409;28;20457;-77
2022/06/15 11:19:03;;;;;;;;;;;;;;;27.32;34.06;102004.09;5112230;27;1864168;-80
2022/06/15 11:21:33;;;;;;;;;;;;;;;27.36;34.22;102008.31;5158600;27;19998;-79
2022/06/15 11:26:55;;;;;;;;;;;;;;;27.49;34.43;102000.13;5129245;27;19973;-76
2022/06/15 11:29:30;;;;;;;;;;;;;;;27.54;33.58;101995.22;5129190;27;20331;-76
2022/06/15 11:32:01;;;;;;;;;;;;;;;27.66;31.70;101994.31;5126928;27;19920;-76
2022/06/15 11:34:30;;;;;;;;;;;;;;;27.73;33.20;101990.16;5127413;27;19919;-76
2022/06/15 11:37:03;;;;;;;;;;;;;;;27.81;33.10;101983.25;5129462;27;19912;-76
2022/06/15 11:39:41;;;;;;;;;;;;;;;27.89;32.84;101983.56;5129049;27;19915;-76
2022/06/15 11:42:09;;;;;;;;;;;;;;;27.95;32.66;101972.16;5122097;27;19915;-76
2022/06/15 11:44:37;;;;;;;;;;;;;;;27.97;32.87;101972.06;5127876;27;20395;-76
2022/06/15 11:49:58;;;;;;;;;;;;;;;28.00;31.75;101977.28;5068189;28;19917;-76
2022/06/15 11:52:44;;;;;;;;;;;;;;;27.96;32.14;101971.19;5066457;28;19917;-76
2022/06/15 11:58:23;;;;;;;;;;;;;;;28.16;32.16;101972.41;5088610;27;19913;-76
2022/06/15 12:01:09;;;;;;;;;;;;;;;28.18;32.31;101972.31;5085932;28;19922;-76
2022/06/15 12:03:54;;;;;;;;;;;;;;;28.31;32.55;101966.75;5087218;28;20018;-76
2022/06/15 12:09:26;;;;;;;;;;;;;;;28.45;32.49;101963.84;5068229;28;19967;-75
2022/06/15 12:14:49;;;;;;;;;;;;;;;28.67;31.79;101959.41;5067318;28;19912;-75
2022/06/15 12:17:22;;;;;;;;;;;;;;;28.78;30.31;101950.41;5047800;28;20552;-76
2022/06/15 12:19:57;;;;;;;;;;;;;;;28.78;30.39;101958.59;5033671;28;19959;-76
2022/06/15 12:22:43;;;;;;;;;;;;;;;28.85;30.80;101954.38;5047350;28;19917;-76
2022/06/15 12:25:15;;;;;;;;;;;;;;;28.94;31.07;101948.16;5048113;28;19913;-76
2022/06/15 12:27:49;;;;;;;;;;;;;;;29.03;31.46;101952.84;5047580;28;20379;-75
2022/06/15 12:33:01;;;;;;;;;;;;;;;29.21;30.82;101955.09;5092033;27;1918888;-76
2022/06/15 12:35:32;;;;;;;;;;;;;;;29.28;29.02;101948.13;5150049;27;19915;-76
2022/06/15 12:38:18;;;;;;;;;;;;;;;29.35;30.30;101946.66;5147531;27;19918;-76
2022/06/15 12:40:50;;;;;;;;;;;;;;;29.32;30.62;101938.72;5130794;27;20023;-75
2022/06/15 12:43:22;;;;;;;;;;;;;;;29.36;30.30;101937.47;5128834;28;20401;-76
2022/06/15 12:45:50;;;;;;;;;;;;;;;29.43;29.06;101931.50;5128863;28;19919;-76
2022/06/15 12:48:35;;;;;;;;;;;;;;;29.50;29.74;101928.13;5127815;27;19912;-76
2022/06/15 12:51:21;;;;;;;;;;;;;;;29.48;29.22;101934.72;5123033;27;20000;-76
2022/06/15 12:54:07;;;;;;;;;;;;;;;29.58;29.53;101940.28;5128716;28;19919;-76
2022/06/15 12:56:43;;;;;;;;;;;;;;;29.54;30.21;101935.06;5126315;27;19916;-76
2022/06/15 12:59:19;;;;;;;;;;;;;;;29.73;31.24;101938.13;5127555;27;20330;-76
2022/06/15 13:02:05;;;;;;;;;;;;;;;29.99;30.12;101944.97;5118577;27;19919;-76
2022/06/15 13:10:12;;;;;;;;;;;;;;;30.38;29.95;101928.00;5068622;28;19974;-76
2022/06/15 13:12:40;;;;;;;;;;;;;;;30.48;30.23;101931.69;5067827;28;20008;-76
2022/06/15 13:15:15;;;;;;;;;;;;;;;30.48;30.07;101928.94;5063235;28;20007;-76
2022/06/15 13:20:26;;;;;;;;;;;;;;;30.50;29.54;101942.47;5082470;27;19916;-76
2022/06/15 13:22:52;;;;;;;;;;;;;;;30.55;29.68;101948.41;5086576;28;19923;-76
2022/06/15 13:25:20;;;;;;;;;;;;;;;30.64;29.52;101950.34;5088399;28;19951;-76
2022/06/15 13:33:05;;;;;;;;;;;;;;;30.82;30.32;101955.19;5064995;28;19916;-76
2022/06/15 13:35:33;;;;;;;;;;;;;;;30.88;29.76;101961.94;5050858;28;19916;-76
2022/06/15 13:41:00;;;;;;;;;;;;;;;30.80;29.20;101962.63;5068338;28;19974;-75
2022/06/15 13:43:27;;;;;;;;;;;;;;;30.78;29.92;101951.84;5064410;28;20390;-75
2022/06/15 13:45:55;;;;;;;;;;;;;;;30.75;29.86;101957.56;5066679;28;19920;-76
2022/06/15 13:48:23;;;;;;;;;;;;;;;30.77;30.12;101955.56;5064788;28;20007;-75
2022/06/15 13:50:51;;;;;;;;;;;;;;;30.89;29.56;101959.06;5067781;28;19913;-76
2022/06/15 13:53:37;;;;;;;;;;;;;;;31.11;30.24;101957.19;5068292;28;19919;-76
2022/06/15 13:56:07;;;;;;;;;;;;;;;31.19;29.79;101959.22;5068123;28;19921;-76
2022/06/15 13:58:53;;;;;;;;;;;;;;;31.28;29.30;101958.41;5064949;28;19921;-76
2022/06/15 14:01:39;;;;;;;;;;;;;;;31.35;29.50;101953.22;5066517;28;20393;-76
2022/06/15 14:04:25;;;;;;;;;;;;;;;31.30;29.06;101950.88;5068108;28;20379;-75
2022/06/15 14:09:40;;;;;;;;;;;;;;;31.47;28.82;101941.13;5046624;28;19913;-76
2022/06/15 14:12:14;;;;;;;;;;;;;;;31.57;28.50;101936.53;5032626;28;19956;-76
2022/06/15 14:14:47;;;;;;;;;;;;;;;31.72;29.17;101947.09;5028178;28;19913;-76
2022/06/15 14:17:33;;;;;;;;;;;;;;;31.79;28.85;101945.53;5028768;28;19940;-77
2022/06/15 14:22:54;;;;;;;;;;;;;;;31.78;28.15;101930.94;5065640;28;19917;-76
2022/06/15 14:25:21;;;;;;;;;;;;;;;31.88;28.43;101933.69;5067365;28;19917;-76
2022/06/15 14:27:50;;;;;;;;;;;;;;;32.01;28.53;101936.13;5067370;28;19916;-76
2022/06/15 14:30:19;;;;;;;;;;;;;;;32.09;27.81;101935.41;5067207;28;19936;-76
2022/06/15 14:32:45;;;;;;;;;;;;;;;32.10;27.27;101928.91;5066185;28;20402;-76
2022/06/15 14:35:13;;;;;;;;;;;;;;;32.25;26.60;101935.69;5067788;28;20296;-76
2022/06/15 14:37:39;;;;;;;;;;;;;;;32.22;26.61;101930.50;5061410;28;19947;-76
2022/06/15 14:40:06;;;;;;;;;;;;;;;32.32;27.06;101935.13;5064479;28;19916;-76
2022/06/15 14:42:54;;;;;;;;;;;;;;;32.35;27.67;101932.06;5062871;28;19920;-75
2022/06/15 14:45:20;;;;;;;;;;;;;;;32.47;27.99;101939.09;5064272;28;19924;-76